sensor_id;sensor_type;location;lat;lon;timestamp;temperature;humidity
31799;DHT22;18374;51.136;3.502;2023-07-02T00:00:17;16.70;99.90
31799;DHT22;18374;51.136;3.502;2023-07-02T00:02:46;16.70;99.90
31799;DHT22;18374;51.136;3.502;2023-07-02T00:05:14;16.70;99.90
31799;DHT22;18374;51.136;3.502;2023-07-02T00:07:42;16.70;99.90
31799;DHT22;18374;51.136;3.502;2023-07-02T00:10:09;16.70;99.90
31799;DHT22;18374;51.136;3.502;2023-07-02T00:12:38;16.70;99.90
31799;DHT22;18374;51.136;3.502;2023-07-02T00:15:06;16.60;99.90
31799;DHT22;18374;51.136;3.502;2023-07-02T00:17:34;16.60;99.90
31799;DHT22;18374;51.136;3.502;2023-07-02T00:20:02;16.60;99.90
31799;DHT22;18374;51.136;3.502;2023-07-02T00:22:36;16.60;99.90
31799;DHT22;18374;51.136;3.502;2023-07-02T00:25:04;16.60;99.90
31799;DHT22;18374;51.136;3.502;2023-07-02T00:27:32;16.60;99.90
31799;DHT22;18374;51.136;3.502;2023-07-02T00:29:59;16.60;99.90
31799;DHT22;18374;51.136;3.502;2023-07-02T00:32:27;16.60;99.90
31799;DHT22;18374;51.136;3.502;2023-07-02T00:34:55;16.60;99.90
31799;DHT22;18374;51.136;3.502;2023-07-02T00:37:22;16.50;99.90
31799;DHT22;18374;51.136;3.502;2023-07-02T00:39:50;16.50;99.90
31799;DHT22;18374;51.136;3.502;2023-07-02T00:42:19;16.50;99.90
31799;DHT22;18374;51.136;3.502;2023-07-02T00:44:47;16.50;99.90
31799;DHT22;18374;51.136;3.502;2023-07-02T00:47:18;16.40;99.90
31799;DHT22;18374;51.136;3.502;2023-07-02T00:49:46;16.40;99.90
31799;DHT22;18374;51.136;3.502;2023-07-02T00:52:14;16.40;99.90
31799;DHT22;18374;51.136;3.502;2023-07-02T00:54:42;16.30;99.90
31799;DHT22;18374;51.136;3.502;2023-07-02T00:57:10;16.30;99.90
31799;DHT22;18374;51.136;3.502;2023-07-02T00:59:38;16.30;99.90
31799;DHT22;18374;51.136;3.502;2023-07-02T01:02:05;16.30;99.90
31799;DHT22;18374;51.136;3.502;2023-07-02T01:04:34;16.30;99.90
31799;DHT22;18374;51.136;3.502;2023-07-02T01:07:02;16.20;99.90
31799;DHT22;18374;51.136;3.502;2023-07-02T01:09:39;16.20;99.90
31799;DHT22;18374;51.136;3.502;2023-07-02T01:12:08;16.20;99.90
31799;DHT22;18374;51.136;3.502;2023-07-02T01:14:48;16.10;99.90
31799;DHT22;18374;51.136;3.502;2023-07-02T01:17:19;16.10;99.90
31799;DHT22;18374;51.136;3.502;2023-07-02T01:19:50;16.00;99.90
31799;DHT22;18374;51.136;3.502;2023-07-02T01:22:22;16.00;99.90
31799;DHT22;18374;51.136;3.502;2023-07-02T01:24:52;15.90;99.90
31799;DHT22;18374;51.136;3.502;2023-07-02T01:27:20;15.90;99.90
31799;DHT22;18374;51.136;3.502;2023-07-02T01:29:52;15.80;99.90
31799;DHT22;18374;51.136;3.502;2023-07-02T01:32:21;15.90;99.90
31799;DHT22;18374;51.136;3.502;2023-07-02T01:34:50;15.80;99.90
31799;DHT22;18374;51.136;3.502;2023-07-02T01:37:21;15.80;99.90
31799;DHT22;18374;51.136;3.502;2023-07-02T01:39:49;15.70;99.90
31799;DHT22;18374;51.136;3.502;2023-07-02T01:42:18;15.70;99.90
31799;DHT22;18374;51.136;3.502;2023-07-02T01:44:48;15.60;99.90
31799;DHT22;18374;51.136;3.502;2023-07-02T01:47:18;15.60;99.90
31799;DHT22;18374;51.136;3.502;2023-07-02T01:49:47;15.50;99.90
31799;DHT22;18374;51.136;3.502;2023-07-02T01:52:15;15.50;99.90
31799;DHT22;18374;51.136;3.502;2023-07-02T01:54:45;15.50;99.90
31799;DHT22;18374;51.136;3.502;2023-07-02T01:57:14;15.40;99.90
31799;DHT22;18374;51.136;3.502;2023-07-02T01:59:41;15.40;99.90
31799;DHT22;18374;51.136;3.502;2023-07-02T02:02:09;15.40;99.90
31799;DHT22;18374;51.136;3.502;2023-07-02T02:04:37;15.30;99.90
31799;DHT22;18374;51.136;3.502;2023-07-02T02:07:05;15.20;99.90
31799;DHT22;18374;51.136;3.502;2023-07-02T02:09:33;15.20;99.90
31799;DHT22;18374;51.136;3.502;2023-07-02T02:12:01;15.20;99.90
31799;DHT22;18374;51.136;3.502;2023-07-02T02:14:29;15.20;99.90
31799;DHT22;18374;51.136;3.502;2023-07-02T02:16:57;15.20;99.90
31799;DHT22;18374;51.136;3.502;2023-07-02T02:19:25;15.20;99.90
31799;DHT22;18374;51.136;3.502;2023-07-02T02:21:52;15.20;99.90
31799;DHT22;18374;51.136;3.502;2023-07-02T02:24:20;15.30;99.90
31799;DHT22;18374;51.136;3.502;2023-07-02T02:26:48;15.30;99.90
31799;DHT22;18374;51.136;3.502;2023-07-02T02:29:16;15.30;99.90
31799;DHT22;18374;51.136;3.502;2023-07-02T02:31:44;15.40;99.90
31799;DHT22;18374;51.136;3.502;2023-07-02T02:34:12;15.40;99.90
31799;DHT22;18374;51.136;3.502;2023-07-02T02:36:41;15.40;99.90
31799;DHT22;18374;51.136;3.502;2023-07-02T02:39:08;15.40;99.90
31799;DHT22;18374;51.136;3.502;2023-07-02T02:41:36;15.40;99.90
31799;DHT22;18374;51.136;3.502;2023-07-02T02:44:04;15.30;99.90
31799;DHT22;18374;51.136;3.502;2023-07-02T02:46:32;15.30;99.90
31799;DHT22;18374;51.136;3.502;2023-07-02T02:49:00;15.30;99.90
31799;DHT22;18374;51.136;3.502;2023-07-02T02:51:28;15.30;99.90
31799;DHT22;18374;51.136;3.502;2023-07-02T02:53:55;15.30;99.90
31799;DHT22;18374;51.136;3.502;2023-07-02T02:56:23;15.30;99.90
31799;DHT22;18374;51.136;3.502;2023-07-02T02:58:51;15.30;99.90
31799;DHT22;18374;51.136;3.502;2023-07-02T03:01:19;15.20;99.90
31799;DHT22;18374;51.136;3.502;2023-07-02T03:03:47;15.20;99.90
31799;DHT22;18374;51.136;3.502;2023-07-02T03:06:15;15.10;99.90
31799;DHT22;18374;51.136;3.502;2023-07-02T03:08:43;15.10;99.90
31799;DHT22;18374;51.136;3.502;2023-07-02T03:11:11;15.10;99.90
31799;DHT22;18374;51.136;3.502;2023-07-02T03:13:39;15.10;99.90
31799;DHT22;18374;51.136;3.502;2023-07-02T03:16:06;15.10;99.90
31799;DHT22;18374;51.136;3.502;2023-07-02T03:18:35;15.10;99.90
31799;DHT22;18374;51.136;3.502;2023-07-02T03:21:02;15.10;99.90
31799;DHT22;18374;51.136;3.502;2023-07-02T03:23:30;15.10;99.90
31799;DHT22;18374;51.136;3.502;2023-07-02T03:25:58;15.10;99.90
31799;DHT22;18374;51.136;3.502;2023-07-02T03:28:25;15.10;99.90
31799;DHT22;18374;51.136;3.502;2023-07-02T03:30:53;15.10;99.90
31799;DHT22;18374;51.136;3.502;2023-07-02T03:33:21;15.20;99.90
31799;DHT22;18374;51.136;3.502;2023-07-02T03:35:49;15.20;99.90
31799;DHT22;18374;51.136;3.502;2023-07-02T03:38:16;15.20;99.90
31799;DHT22;18374;51.136;3.502;2023-07-02T03:40:44;15.20;99.90
31799;DHT22;18374;51.136;3.502;2023-07-02T03:43:12;15.20;99.90
31799;DHT22;18374;51.136;3.502;2023-07-02T03:45:40;15.20;99.90
31799;DHT22;18374;51.136;3.502;2023-07-02T03:48:08;15.20;99.90
31799;DHT22;18374;51.136;3.502;2023-07-02T03:50:36;15.20;99.90
31799;DHT22;18374;51.136;3.502;2023-07-02T03:53:03;15.10;99.90
31799;DHT22;18374;51.136;3.502;2023-07-02T03:55:31;15.20;99.90
31799;DHT22;18374;51.136;3.502;2023-07-02T03:57:59;15.20;99.90
31799;DHT22;18374;51.136;3.502;2023-07-02T04:00:26;15.20;99.90
31799;DHT22;18374;51.136;3.502;2023-07-02T04:02:54;15.20;99.90
31799;DHT22;18374;51.136;3.502;2023-07-02T04:05:22;15.20;99.90
31799;DHT22;18374;51.136;3.502;2023-07-02T04:07:49;15.20;99.90
31799;DHT22;18374;51.136;3.502;2023-07-02T04:10:17;15.20;99.90
31799;DHT22;18374;51.136;3.502;2023-07-02T04:12:45;15.20;99.90
31799;DHT22;18374;51.136;3.502;2023-07-02T04:15:13;15.20;99.90
31799;DHT22;18374;51.136;3.502;2023-07-02T04:17:40;15.20;99.90
31799;DHT22;18374;51.136;3.502;2023-07-02T04:20:09;15.10;99.90
31799;DHT22;18374;51.136;3.502;2023-07-02T04:22:37;15.10;99.90
31799;DHT22;18374;51.136;3.502;2023-07-02T04:25:05;15.10;99.90
31799;DHT22;18374;51.136;3.502;2023-07-02T04:27:46;15.10;99.90
31799;DHT22;18374;51.136;3.502;2023-07-02T04:30:18;15.10;99.90
31799;DHT22;18374;51.136;3.502;2023-07-02T04:32:46;15.10;99.90
31799;DHT22;18374;51.136;3.502;2023-07-02T04:35:14;15.10;99.90
31799;DHT22;18374;51.136;3.502;2023-07-02T04:37:42;15.10;99.90
31799;DHT22;18374;51.136;3.502;2023-07-02T04:40:10;15.10;99.90
31799;DHT22;18374;51.136;3.502;2023-07-02T04:42:39;15.10;99.90
31799;DHT22;18374;51.136;3.502;2023-07-02T04:45:14;15.20;99.90
31799;DHT22;18374;51.136;3.502;2023-07-02T04:47:45;15.20;99.90
31799;DHT22;18374;51.136;3.502;2023-07-02T04:50:13;15.20;99.90
31799;DHT22;18374;51.136;3.502;2023-07-02T04:52:41;15.30;99.90
31799;DHT22;18374;51.136;3.502;2023-07-02T04:55:09;15.30;99.90
31799;DHT22;18374;51.136;3.502;2023-07-02T04:57:37;15.40;99.90
31799;DHT22;18374;51.136;3.502;2023-07-02T05:00:05;15.40;99.90
31799;DHT22;18374;51.136;3.502;2023-07-02T05:02:35;15.40;99.90
31799;DHT22;18374;51.136;3.502;2023-07-02T05:05:02;15.40;99.90
31799;DHT22;18374;51.136;3.502;2023-07-02T05:07:30;15.50;99.90
31799;DHT22;18374;51.136;3.502;2023-07-02T05:09:58;15.50;99.90
31799;DHT22;18374;51.136;3.502;2023-07-02T05:12:26;15.50;99.90
31799;DHT22;18374;51.136;3.502;2023-07-02T05:14:53;15.60;99.90
31799;DHT22;18374;51.136;3.502;2023-07-02T05:17:21;15.60;99.90
31799;DHT22;18374;51.136;3.502;2023-07-02T05:19:49;15.70;99.90
31799;DHT22;18374;51.136;3.502;2023-07-02T05:22:17;15.70;99.90
31799;DHT22;18374;51.136;3.502;2023-07-02T05:24:46;15.80;99.90
31799;DHT22;18374;51.136;3.502;2023-07-02T05:27:14;15.80;99.90
31799;DHT22;18374;51.136;3.502;2023-07-02T05:29:42;15.90;99.90
31799;DHT22;18374;51.136;3.502;2023-07-02T05:32:10;16.00;99.90
31799;DHT22;18374;51.136;3.502;2023-07-02T05:34:38;16.00;99.90
31799;DHT22;18374;51.136;3.502;2023-07-02T05:37:06;16.10;99.90
31799;DHT22;18374;51.136;3.502;2023-07-02T05:39:34;16.10;99.90
31799;DHT22;18374;51.136;3.502;2023-07-02T05:42:02;16.10;99.90
31799;DHT22;18374;51.136;3.502;2023-07-02T05:44:30;16.10;99.90
31799;DHT22;18374;51.136;3.502;2023-07-02T05:46:58;16.20;99.90
31799;DHT22;18374;51.136;3.502;2023-07-02T05:49:25;16.30;99.90
31799;DHT22;18374;51.136;3.502;2023-07-02T05:51:53;16.40;99.90
31799;DHT22;18374;51.136;3.502;2023-07-02T05:54:21;16.40;99.90
31799;DHT22;18374;51.136;3.502;2023-07-02T05:56:49;16.50;99.90
31799;DHT22;18374;51.136;3.502;2023-07-02T05:59:16;16.50;99.90
31799;DHT22;18374;51.136;3.502;2023-07-02T06:01:46;16.60;99.90
31799;DHT22;18374;51.136;3.502;2023-07-02T06:04:14;16.70;99.90
31799;DHT22;18374;51.136;3.502;2023-07-02T06:06:42;16.70;99.90
31799;DHT22;18374;51.136;3.502;2023-07-02T06:09:10;16.70;99.90
31799;DHT22;18374;51.136;3.502;2023-07-02T06:11:37;16.80;99.90
31799;DHT22;18374;51.136;3.502;2023-07-02T06:14:05;16.90;99.90
31799;DHT22;18374;51.136;3.502;2023-07-02T06:16:33;16.90;99.90
31799;DHT22;18374;51.136;3.502;2023-07-02T06:19:01;17.00;99.90
31799;DHT22;18374;51.136;3.502;2023-07-02T06:21:29;17.00;99.90
31799;DHT22;18374;51.136;3.502;2023-07-02T06:23:57;17.00;99.90
31799;DHT22;18374;51.136;3.502;2023-07-02T06:26:26;17.10;99.90
31799;DHT22;18374;51.136;3.502;2023-07-02T06:28:53;17.20;99.90
31799;DHT22;18374;51.136;3.502;2023-07-02T06:31:21;17.20;99.90
31799;DHT22;18374;51.136;3.502;2023-07-02T06:33:49;17.30;99.90
31799;DHT22;18374;51.136;3.502;2023-07-02T06:36:17;17.30;99.90
31799;DHT22;18374;51.136;3.502;2023-07-02T06:38:45;17.40;99.90
31799;DHT22;18374;51.136;3.502;2023-07-02T06:41:13;17.50;99.90
31799;DHT22;18374;51.136;3.502;2023-07-02T06:43:42;17.60;99.90
31799;DHT22;18374;51.136;3.502;2023-07-02T06:46:11;17.60;99.90
31799;DHT22;18374;51.136;3.502;2023-07-02T06:48:39;17.70;99.90
31799;DHT22;18374;51.136;3.502;2023-07-02T06:51:07;17.70;99.90
31799;DHT22;18374;51.136;3.502;2023-07-02T06:53:36;17.70;99.90
31799;DHT22;18374;51.136;3.502;2023-07-02T06:56:04;17.80;99.90
31799;DHT22;18374;51.136;3.502;2023-07-02T06:58:32;17.90;99.90
31799;DHT22;18374;51.136;3.502;2023-07-02T07:00:59;17.90;99.90
31799;DHT22;18374;51.136;3.502;2023-07-02T07:03:27;17.90;99.90
31799;DHT22;18374;51.136;3.502;2023-07-02T07:05:55;17.90;99.90
31799;DHT22;18374;51.136;3.502;2023-07-02T07:08:23;17.90;99.90
31799;DHT22;18374;51.136;3.502;2023-07-02T07:10:51;18.00;99.90
31799;DHT22;18374;51.136;3.502;2023-07-02T07:13:19;18.00;99.90
31799;DHT22;18374;51.136;3.502;2023-07-02T07:15:47;18.10;99.90
31799;DHT22;18374;51.136;3.502;2023-07-02T07:18:15;18.20;99.90
31799;DHT22;18374;51.136;3.502;2023-07-02T07:20:43;18.20;99.90
31799;DHT22;18374;51.136;3.502;2023-07-02T07:23:11;18.20;99.90
31799;DHT22;18374;51.136;3.502;2023-07-02T07:25:39;18.30;99.90
31799;DHT22;18374;51.136;3.502;2023-07-02T07:28:07;18.30;99.90
31799;DHT22;18374;51.136;3.502;2023-07-02T07:30:34;18.50;99.90
31799;DHT22;18374;51.136;3.502;2023-07-02T07:33:02;18.70;99.90
31799;DHT22;18374;51.136;3.502;2023-07-02T07:35:30;18.70;99.90
31799;DHT22;18374;51.136;3.502;2023-07-02T07:37:58;18.70;99.90
31799;DHT22;18374;51.136;3.502;2023-07-02T07:40:25;18.70;99.90
31799;DHT22;18374;51.136;3.502;2023-07-02T07:42:53;18.60;99.90
31799;DHT22;18374;51.136;3.502;2023-07-02T07:45:21;18.40;99.90
31799;DHT22;18374;51.136;3.502;2023-07-02T07:47:48;18.40;99.90
31799;DHT22;18374;51.136;3.502;2023-07-02T07:50:16;18.40;99.90
31799;DHT22;18374;51.136;3.502;2023-07-02T07:52:44;18.40;99.90
31799;DHT22;18374;51.136;3.502;2023-07-02T07:55:12;18.40;99.90
31799;DHT22;18374;51.136;3.502;2023-07-02T07:57:40;18.50;99.90
31799;DHT22;18374;51.136;3.502;2023-07-02T08:00:09;18.50;99.90
31799;DHT22;18374;51.136;3.502;2023-07-02T08:02:44;18.50;99.90
31799;DHT22;18374;51.136;3.502;2023-07-02T08:05:13;18.60;99.90
31799;DHT22;18374;51.136;3.502;2023-07-02T08:07:40;18.60;99.90
31799;DHT22;18374;51.136;3.502;2023-07-02T08:10:10;18.60;99.90
31799;DHT22;18374;51.136;3.502;2023-07-02T08:12:38;18.60;99.90
31799;DHT22;18374;51.136;3.502;2023-07-02T08:15:06;18.70;99.90
31799;DHT22;18374;51.136;3.502;2023-07-02T08:17:34;18.70;99.90
31799;DHT22;18374;51.136;3.502;2023-07-02T08:20:03;18.70;99.90
31799;DHT22;18374;51.136;3.502;2023-07-02T08:22:31;18.70;99.90
31799;DHT22;18374;51.136;3.502;2023-07-02T08:24:59;18.80;99.90
31799;DHT22;18374;51.136;3.502;2023-07-02T08:27:27;18.90;99.90
31799;DHT22;18374;51.136;3.502;2023-07-02T08:29:55;18.90;99.90
31799;DHT22;18374;51.136;3.502;2023-07-02T08:32:22;19.00;99.90
31799;DHT22;18374;51.136;3.502;2023-07-02T08:34:50;19.10;99.90
31799;DHT22;18374;51.136;3.502;2023-07-02T08:37:19;19.10;99.90
31799;DHT22;18374;51.136;3.502;2023-07-02T08:39:49;19.10;99.90
31799;DHT22;18374;51.136;3.502;2023-07-02T08:42:18;19.00;99.90
31799;DHT22;18374;51.136;3.502;2023-07-02T08:44:46;19.00;99.90
31799;DHT22;18374;51.136;3.502;2023-07-02T08:47:15;19.20;99.90
31799;DHT22;18374;51.136;3.502;2023-07-02T08:49:43;19.40;99.90
31799;DHT22;18374;51.136;3.502;2023-07-02T08:52:10;19.40;99.90
31799;DHT22;18374;51.136;3.502;2023-07-02T08:54:38;19.50;99.90
31799;DHT22;18374;51.136;3.502;2023-07-02T08:57:06;19.40;99.90
31799;DHT22;18374;51.136;3.502;2023-07-02T08:59:35;19.20;99.90
31799;DHT22;18374;51.136;3.502;2023-07-02T09:02:03;19.10;99.90
31799;DHT22;18374;51.136;3.502;2023-07-02T09:04:32;19.10;99.90
31799;DHT22;18374;51.136;3.502;2023-07-02T09:07:10;19.10;99.90
31799;DHT22;18374;51.136;3.502;2023-07-02T09:09:48;19.00;99.90
31799;DHT22;18374;51.136;3.502;2023-07-02T09:12:26;18.80;99.90
31799;DHT22;18374;51.136;3.502;2023-07-02T09:17:35;19.00;99.90
31799;DHT22;18374;51.136;3.502;2023-07-02T09:20:05;19.30;99.90
31799;DHT22;18374;51.136;3.502;2023-07-02T09:22:37;19.50;99.90
31799;DHT22;18374;51.136;3.502;2023-07-02T09:25:08;19.70;98.00
31799;DHT22;18374;51.136;3.502;2023-07-02T09:27:39;19.70;98.70
31799;DHT22;18374;51.136;3.502;2023-07-02T09:30:11;19.50;99.90
31799;DHT22;18374;51.136;3.502;2023-07-02T09:32:43;19.50;99.50
31799;DHT22;18374;51.136;3.502;2023-07-02T09:35:12;19.30;97.90
31799;DHT22;18374;51.136;3.502;2023-07-02T09:37:43;19.20;97.60
31799;DHT22;18374;51.136;3.502;2023-07-02T09:40:11;19.10;98.30
31799;DHT22;18374;51.136;3.502;2023-07-02T09:42:40;19.30;99.00
31799;DHT22;18374;51.136;3.502;2023-07-02T09:45:10;19.70;99.40
31799;DHT22;18374;51.136;3.502;2023-07-02T09:47:44;20.00;98.40
31799;DHT22;18374;51.136;3.502;2023-07-02T09:50:16;20.10;98.40
31799;DHT22;18374;51.136;3.502;2023-07-02T09:52:45;20.10;97.90
31799;DHT22;18374;51.136;3.502;2023-07-02T09:55:14;19.90;97.70
31799;DHT22;18374;51.136;3.502;2023-07-02T09:57:45;19.70;98.60
31799;DHT22;18374;51.136;3.502;2023-07-02T10:00:14;19.60;99.20
31799;DHT22;18374;51.136;3.502;2023-07-02T10:02:48;19.50;98.90
31799;DHT22;18374;51.136;3.502;2023-07-02T10:05:30;19.30;99.40
31799;DHT22;18374;51.136;3.502;2023-07-02T10:08:12;19.10;99.40
31799;DHT22;18374;51.136;3.502;2023-07-02T10:10:48;19.00;99.50
31799;DHT22;18374;51.136;3.502;2023-07-02T10:13:29;19.10;98.70
31799;DHT22;18374;51.136;3.502;2023-07-02T10:16:01;19.20;99.20
31799;DHT22;18374;51.136;3.502;2023-07-02T10:18:30;19.40;98.60
31799;DHT22;18374;51.136;3.502;2023-07-02T10:20:58;19.40;98.60
31799;DHT22;18374;51.136;3.502;2023-07-02T10:23:33;19.30;99.10
31799;DHT22;18374;51.136;3.502;2023-07-02T10:26:14;19.20;98.00
31799;DHT22;18374;51.136;3.502;2023-07-02T10:28:43;19.30;99.40
31799;DHT22;18374;51.136;3.502;2023-07-02T10:31:23;19.90;99.90
31799;DHT22;18374;51.136;3.502;2023-07-02T10:33:50;20.50;97.50
31799;DHT22;18374;51.136;3.502;2023-07-02T10:38:51;21.50;95.80
31799;DHT22;18374;51.136;3.502;2023-07-02T10:41:27;21.70;95.10
31799;DHT22;18374;51.136;3.502;2023-07-02T10:44:09;21.70;94.30
31799;DHT22;18374;51.136;3.502;2023-07-02T10:46:47;21.40;95.80
31799;DHT22;18374;51.136;3.502;2023-07-02T10:49:17;20.90;94.60
31799;DHT22;18374;51.136;3.502;2023-07-02T10:51:57;20.60;95.50
31799;DHT22;18374;51.136;3.502;2023-07-02T10:54:46;20.60;97.10
31799;DHT22;18374;51.136;3.502;2023-07-02T10:57:17;20.60;95.60
31799;DHT22;18374;51.136;3.502;2023-07-02T10:59:49;20.90;95.10
31799;DHT22;18374;51.136;3.502;2023-07-02T11:02:17;20.70;92.60
31799;DHT22;18374;51.136;3.502;2023-07-02T11:04:45;20.30;93.20
31799;DHT22;18374;51.136;3.502;2023-07-02T11:07:14;20.30;94.10
31799;DHT22;18374;51.136;3.502;2023-07-02T11:09:50;20.60;93.50
31799;DHT22;18374;51.136;3.502;2023-07-02T11:12:18;20.70;93.60
31799;DHT22;18374;51.136;3.502;2023-07-02T11:15:07;20.90;92.60
31799;DHT22;18374;51.136;3.502;2023-07-02T11:17:39;20.80;92.70
31799;DHT22;18374;51.136;3.502;2023-07-02T11:20:11;21.00;93.80
31799;DHT22;18374;51.136;3.502;2023-07-02T11:22:41;21.20;93.40
31799;DHT22;18374;51.136;3.502;2023-07-02T11:25:17;21.30;92.30
31799;DHT22;18374;51.136;3.502;2023-07-02T11:27:47;21.40;93.10
31799;DHT22;18374;51.136;3.502;2023-07-02T11:30:15;21.50;91.60
31799;DHT22;18374;51.136;3.502;2023-07-02T11:32:52;21.60;92.80
31799;DHT22;18374;51.136;3.502;2023-07-02T11:35:22;21.60;91.40
31799;DHT22;18374;51.136;3.502;2023-07-02T11:37:50;21.50;91.60
31799;DHT22;18374;51.136;3.502;2023-07-02T11:40:18;21.30;91.90
31799;DHT22;18374;51.136;3.502;2023-07-02T11:42:46;21.40;92.20
31799;DHT22;18374;51.136;3.502;2023-07-02T11:45:14;21.30;91.40
31799;DHT22;18374;51.136;3.502;2023-07-02T11:47:42;20.90;92.40
31799;DHT22;18374;51.136;3.502;2023-07-02T11:50:10;20.70;92.90
31799;DHT22;18374;51.136;3.502;2023-07-02T11:52:52;20.70;93.60
31799;DHT22;18374;51.136;3.502;2023-07-02T11:55:20;20.60;91.90
31799;DHT22;18374;51.136;3.502;2023-07-02T11:57:48;20.80;91.90
31799;DHT22;18374;51.136;3.502;2023-07-02T12:00:17;21.10;93.30
31799;DHT22;18374;51.136;3.502;2023-07-02T12:02:45;21.50;92.20
31799;DHT22;18374;51.136;3.502;2023-07-02T12:05:13;21.60;90.40
31799;DHT22;18374;51.136;3.502;2023-07-02T12:07:41;21.40;92.20
31799;DHT22;18374;51.136;3.502;2023-07-02T12:10:08;21.10;92.10
31799;DHT22;18374;51.136;3.502;2023-07-02T12:12:36;20.90;92.70
31799;DHT22;18374;51.136;3.502;2023-07-02T12:15:04;21.00;92.60
31799;DHT22;18374;51.136;3.502;2023-07-02T12:17:32;21.20;92.90
31799;DHT22;18374;51.136;3.502;2023-07-02T12:20:01;21.30;92.80
31799;DHT22;18374;51.136;3.502;2023-07-02T12:22:30;21.60;91.40
31799;DHT22;18374;51.136;3.502;2023-07-02T12:24:58;21.60;90.40
31799;DHT22;18374;51.136;3.502;2023-07-02T12:27:25;21.30;90.60
31799;DHT22;18374;51.136;3.502;2023-07-02T12:29:56;21.40;91.80
31799;DHT22;18374;51.136;3.502;2023-07-02T12:32:23;21.40;91.60
31799;DHT22;18374;51.136;3.502;2023-07-02T12:34:51;21.50;92.20
31799;DHT22;18374;51.136;3.502;2023-07-02T12:37:19;21.40;91.50
31799;DHT22;18374;51.136;3.502;2023-07-02T12:39:48;21.40;92.70
31799;DHT22;18374;51.136;3.502;2023-07-02T12:42:15;21.50;92.10
31799;DHT22;18374;51.136;3.502;2023-07-02T12:44:43;21.70;92.50
31799;DHT22;18374;51.136;3.502;2023-07-02T12:47:11;21.70;92.30
31799;DHT22;18374;51.136;3.502;2023-07-02T12:49:38;21.70;91.40
31799;DHT22;18374;51.136;3.502;2023-07-02T12:52:06;21.90;91.70
31799;DHT22;18374;51.136;3.502;2023-07-02T12:54:34;22.00;90.90
31799;DHT22;18374;51.136;3.502;2023-07-02T12:57:02;22.10;90.50
31799;DHT22;18374;51.136;3.502;2023-07-02T12:59:29;22.10;91.30
31799;DHT22;18374;51.136;3.502;2023-07-02T13:01:57;22.60;91.20
31799;DHT22;18374;51.136;3.502;2023-07-02T13:04:25;22.90;90.40
31799;DHT22;18374;51.136;3.502;2023-07-02T13:06:53;23.30;89.50
31799;DHT22;18374;51.136;3.502;2023-07-02T13:09:21;23.50;88.60
31799;DHT22;18374;51.136;3.502;2023-07-02T13:11:48;23.50;87.40
31799;DHT22;18374;51.136;3.502;2023-07-02T13:14:16;23.40;88.90
31799;DHT22;18374;51.136;3.502;2023-07-02T13:16:44;23.40;87.90
31799;DHT22;18374;51.136;3.502;2023-07-02T13:19:13;23.30;85.80
31799;DHT22;18374;51.136;3.502;2023-07-02T13:21:42;23.00;89.60
31799;DHT22;18374;51.136;3.502;2023-07-02T13:24:11;22.90;89.50
31799;DHT22;18374;51.136;3.502;2023-07-02T13:26:39;23.00;90.80
31799;DHT22;18374;51.136;3.502;2023-07-02T13:29:10;23.10;90.20
31799;DHT22;18374;51.136;3.502;2023-07-02T13:31:38;22.90;87.70
31799;DHT22;18374;51.136;3.502;2023-07-02T13:34:05;22.90;89.20
31799;DHT22;18374;51.136;3.502;2023-07-02T13:36:33;23.00;90.50
31799;DHT22;18374;51.136;3.502;2023-07-02T13:39:01;23.10;90.40
31799;DHT22;18374;51.136;3.502;2023-07-02T13:41:30;23.00;90.90
31799;DHT22;18374;51.136;3.502;2023-07-02T13:43:58;22.90;84.10
31799;DHT22;18374;51.136;3.502;2023-07-02T13:46:25;22.60;85.00
31799;DHT22;18374;51.136;3.502;2023-07-02T13:48:53;22.50;87.80
31799;DHT22;18374;51.136;3.502;2023-07-02T13:51:21;22.60;88.10
31799;DHT22;18374;51.136;3.502;2023-07-02T13:53:49;22.60;89.50
31799;DHT22;18374;51.136;3.502;2023-07-02T13:56:17;22.50;87.60
31799;DHT22;18374;51.136;3.502;2023-07-02T13:59:03;22.20;85.50
31799;DHT22;18374;51.136;3.502;2023-07-02T14:01:32;21.90;86.90
31799;DHT22;18374;51.136;3.502;2023-07-02T14:04:02;21.80;87.80
31799;DHT22;18374;51.136;3.502;2023-07-02T14:06:31;21.90;89.50
31799;DHT22;18374;51.136;3.502;2023-07-02T14:08:59;22.00;90.70
31799;DHT22;18374;51.136;3.502;2023-07-02T14:11:27;22.10;90.20
31799;DHT22;18374;51.136;3.502;2023-07-02T14:13:55;22.10;89.10
31799;DHT22;18374;51.136;3.502;2023-07-02T14:16:23;22.00;87.50
31799;DHT22;18374;51.136;3.502;2023-07-02T14:18:51;22.00;88.50
31799;DHT22;18374;51.136;3.502;2023-07-02T14:21:19;22.10;90.00
31799;DHT22;18374;51.136;3.502;2023-07-02T14:23:47;22.30;91.10
31799;DHT22;18374;51.136;3.502;2023-07-02T14:26:15;22.50;88.60
31799;DHT22;18374;51.136;3.502;2023-07-02T14:28:43;22.50;86.50
31799;DHT22;18374;51.136;3.502;2023-07-02T14:31:11;22.20;86.90
31799;DHT22;18374;51.136;3.502;2023-07-02T14:33:38;22.10;90.60
31799;DHT22;18374;51.136;3.502;2023-07-02T14:36:06;22.00;89.60
31799;DHT22;18374;51.136;3.502;2023-07-02T14:38:35;22.00;88.50
31799;DHT22;18374;51.136;3.502;2023-07-02T14:41:02;22.00;88.00
31799;DHT22;18374;51.136;3.502;2023-07-02T14:43:31;22.00;88.10
31799;DHT22;18374;51.136;3.502;2023-07-02T14:46:02;22.10;88.30
31799;DHT22;18374;51.136;3.502;2023-07-02T14:48:31;22.00;87.60
31799;DHT22;18374;51.136;3.502;2023-07-02T14:51:00;21.90;90.30
31799;DHT22;18374;51.136;3.502;2023-07-02T14:53:31;21.90;88.20
31799;DHT22;18374;51.136;3.502;2023-07-02T14:56:00;22.00;88.80
31799;DHT22;18374;51.136;3.502;2023-07-02T14:58:31;22.30;90.80
31799;DHT22;18374;51.136;3.502;2023-07-02T15:00:59;22.30;88.40
31799;DHT22;18374;51.136;3.502;2023-07-02T15:03:28;22.30;89.10
31799;DHT22;18374;51.136;3.502;2023-07-02T15:06:15;22.20;89.40
31799;DHT22;18374;51.136;3.502;2023-07-02T15:08:44;22.10;88.30
31799;DHT22;18374;51.136;3.502;2023-07-02T15:11:14;22.30;90.80
31799;DHT22;18374;51.136;3.502;2023-07-02T15:13:42;22.50;89.40
31799;DHT22;18374;51.136;3.502;2023-07-02T15:16:12;22.80;87.80
31799;DHT22;18374;51.136;3.502;2023-07-02T15:18:40;23.00;88.50
31799;DHT22;18374;51.136;3.502;2023-07-02T15:21:08;22.60;84.90
31799;DHT22;18374;51.136;3.502;2023-07-02T15:23:36;22.50;85.40
31799;DHT22;18374;51.136;3.502;2023-07-02T15:26:05;22.40;85.30
31799;DHT22;18374;51.136;3.502;2023-07-02T15:28:33;22.10;86.80
31799;DHT22;18374;51.136;3.502;2023-07-02T15:31:06;22.30;88.10
31799;DHT22;18374;51.136;3.502;2023-07-02T15:33:36;22.40;85.70
31799;DHT22;18374;51.136;3.502;2023-07-02T15:36:05;22.10;86.40
31799;DHT22;18374;51.136;3.502;2023-07-02T15:38:37;22.00;89.90
31799;DHT22;18374;51.136;3.502;2023-07-02T15:41:16;21.70;85.70
31799;DHT22;18374;51.136;3.502;2023-07-02T15:43:45;21.20;87.60
31799;DHT22;18374;51.136;3.502;2023-07-02T15:46:15;21.20;89.10